GMTN  Saniat Rmel  Airport

Morocco

Add Bookmark
ICAO GMTN
IATA TTU
Type Airport
Status Operational
Latitude
35° 35' 39" N
35.594299
Longitude
5° 19' 12" W
-5.320020
Local (GMT ) UTC
Dec 7, 2016 02:22 pm Dec 7, 2016 14:22
Sunrise-Sunset Local UTC
Begin Civil Twilight 06:48 am 06:48
Sunrise 07:16 am 07:16
Sunset 05:09 pm 17:09
End Civil Twilight 05:37 pm 17:37
VFR
VFR
MVFR
MVFR
IFR
IFR
LIFR
LIFR
Unknown
No Data

Current Weather

METAR Observed MVFR
GMTN 071400Z 09018KT 9999 BKN016 18/14 Q1026 NOSIG Wed, Dec 7, 2016 @ 14:00 UTC
(22 Minutes ago)
Marginal Visual Flight Rules
Wind Visibility Clouds Conditions
090° at 18 knots (33 kph) 10 km or more
  • Broken at 1,600 ft AGL
  • No significant weather
Temperatures Readings Precipitation
Current Temp
18°C
64°F
Dewpoint
14°C
57°F
Humidity 78%
Altimeter 30.3" Hg
Sea Level Pressure 1,026 mb
Field Elevation
10 m
33 ft
None Recorded

Additional weather within a 92.6km radius of GMTN

Map ICAO Location
GMTT 55.9km W/NW (285°)
LXGB 62km N (360°)
VFR
VFR
MVFR
MVFR
IFR
IFR
LIFR
LIFR
Unknown
No Data
-
-

CheckWX.com is intended as a tool to help pilots better visualize weather data. It is not intended as a substitute for an official weather briefing obtained from a Flight Service Station. CheckWX.com does not meet the FAA requirements for an official pre-flight weather briefing. Therefore, it's important that pilots still call and obtain an official FSS pre-flight weather briefing.

© 2007-2016 CheckWX.com
14:22:29 UTC